sensor_id;sensor_type;location;lat;lon;timestamp;P1;durP1;ratioP1;P2;durP2;ratioP2
22963;SDS011;11648;49.306;6.934;2023-04-24T00:01:02;2.60;;;0.80;;
22963;SDS011;11648;49.306;6.934;2023-04-24T00:03:29;2.93;;;0.90;;
22963;SDS011;11648;49.306;6.934;2023-04-24T00:05:56;4.77;;;1.20;;
22963;SDS011;11648;49.306;6.934;2023-04-24T00:08:23;4.27;;;1.00;;
22963;SDS011;11648;49.306;6.934;2023-04-24T00:10:50;4.87;;;1.07;;
22963;SDS011;11648;49.306;6.934;2023-04-24T00:13:18;4.03;;;0.83;;
22963;SDS011;11648;49.306;6.934;2023-04-24T00:15:45;1.87;;;0.50;;
22963;SDS011;11648;49.306;6.934;2023-04-24T00:18:11;1.33;;;0.70;;
22963;SDS011;11648;49.306;6.934;2023-04-24T00:20:38;1.00;;;0.60;;
22963;SDS011;11648;49.306;6.934;2023-04-24T00:23:06;1.53;;;0.80;;
22963;SDS011;11648;49.306;6.934;2023-04-24T00:25:33;2.57;;;0.60;;
22963;SDS011;11648;49.306;6.934;2023-04-24T00:27:59;1.93;;;0.83;;
22963;SDS011;11648;49.306;6.934;2023-04-24T00:30:27;1.83;;;0.70;;
22963;SDS011;11648;49.306;6.934;2023-04-24T00:32:54;1.47;;;0.60;;
22963;SDS011;11648;49.306;6.934;2023-04-24T00:35:22;1.77;;;0.70;;
22963;SDS011;11648;49.306;6.934;2023-04-24T00:37:49;1.40;;;0.70;;
22963;SDS011;11648;49.306;6.934;2023-04-24T00:40:16;2.57;;;0.67;;
22963;SDS011;11648;49.306;6.934;2023-04-24T00:42:43;2.53;;;0.70;;
22963;SDS011;11648;49.306;6.934;2023-04-24T00:45:10;2.33;;;0.60;;
22963;SDS011;11648;49.306;6.934;2023-04-24T00:47:37;0.87;;;0.63;;
22963;SDS011;11648;49.306;6.934;2023-04-24T00:50:05;4.27;;;0.70;;
22963;SDS011;11648;49.306;6.934;2023-04-24T00:52:33;1.97;;;0.87;;
22963;SDS011;11648;49.306;6.934;2023-04-24T00:55:00;1.63;;;0.73;;
22963;SDS011;11648;49.306;6.934;2023-04-24T00:57:27;1.20;;;0.67;;
22963;SDS011;11648;49.306;6.934;2023-04-24T00:59:54;2.57;;;0.67;;
22963;SDS011;11648;49.306;6.934;2023-04-24T01:02:21;1.70;;;0.83;;
22963;SDS011;11648;49.306;6.934;2023-04-24T01:04:50;1.70;;;0.90;;
22963;SDS011;11648;49.306;6.934;2023-04-24T01:07:18;1.97;;;0.90;;
22963;SDS011;11648;49.306;6.934;2023-04-24T01:09:47;1.60;;;1.00;;
22963;SDS011;11648;49.306;6.934;2023-04-24T01:12:18;2.00;;;1.10;;
22963;SDS011;11648;49.306;6.934;2023-04-24T01:14:45;2.13;;;1.30;;
22963;SDS011;11648;49.306;6.934;2023-04-24T01:17:14;2.13;;;1.37;;
22963;SDS011;11648;49.306;6.934;2023-04-24T01:19:42;3.10;;;1.30;;
22963;SDS011;11648;49.306;6.934;2023-04-24T01:22:14;3.27;;;1.30;;
22963;SDS011;11648;49.306;6.934;2023-04-24T01:24:42;2.30;;;1.50;;
22963;SDS011;11648;49.306;6.934;2023-04-24T01:27:11;2.97;;;1.57;;
22963;SDS011;11648;49.306;6.934;2023-04-24T01:29:38;2.20;;;1.53;;
22963;SDS011;11648;49.306;6.934;2023-04-24T01:32:06;3.23;;;1.60;;
22963;SDS011;11648;49.306;6.934;2023-04-24T01:34:33;3.10;;;1.33;;
22963;SDS011;11648;49.306;6.934;2023-04-24T01:37:00;3.20;;;1.57;;
22963;SDS011;11648;49.306;6.934;2023-04-24T01:39:27;2.47;;;1.43;;
22963;SDS011;11648;49.306;6.934;2023-04-24T01:41:55;2.43;;;1.67;;
22963;SDS011;11648;49.306;6.934;2023-04-24T01:44:22;2.37;;;1.60;;
22963;SDS011;11648;49.306;6.934;2023-04-24T01:46:49;5.13;;;1.80;;
22963;SDS011;11648;49.306;6.934;2023-04-24T01:49:17;3.17;;;1.77;;
22963;SDS011;11648;49.306;6.934;2023-04-24T01:51:44;4.30;;;1.40;;
22963;SDS011;11648;49.306;6.934;2023-04-24T01:54:11;3.17;;;1.63;;
22963;SDS011;11648;49.306;6.934;2023-04-24T01:56:41;2.37;;;1.50;;
22963;SDS011;11648;49.306;6.934;2023-04-24T01:59:10;2.90;;;1.63;;
22963;SDS011;11648;49.306;6.934;2023-04-24T02:01:38;2.23;;;1.40;;
22963;SDS011;11648;49.306;6.934;2023-04-24T02:04:06;4.10;;;1.60;;
22963;SDS011;11648;49.306;6.934;2023-04-24T02:06:34;3.63;;;1.70;;
22963;SDS011;11648;49.306;6.934;2023-04-24T02:09:01;3.57;;;2.00;;
22963;SDS011;11648;49.306;6.934;2023-04-24T02:11:29;3.53;;;1.93;;
22963;SDS011;11648;49.306;6.934;2023-04-24T02:13:57;2.17;;;1.60;;
22963;SDS011;11648;49.306;6.934;2023-04-24T02:16:24;2.53;;;1.70;;
22963;SDS011;11648;49.306;6.934;2023-04-24T02:18:51;5.20;;;2.10;;
22963;SDS011;11648;49.306;6.934;2023-04-24T02:21:18;3.20;;;1.83;;
22963;SDS011;11648;49.306;6.934;2023-04-24T02:23:44;3.00;;;2.03;;
22963;SDS011;11648;49.306;6.934;2023-04-24T02:26:12;3.07;;;1.90;;
22963;SDS011;11648;49.306;6.934;2023-04-24T02:28:39;4.07;;;1.90;;
22963;SDS011;11648;49.306;6.934;2023-04-24T02:31:06;2.33;;;1.80;;
22963;SDS011;11648;49.306;6.934;2023-04-24T02:33:32;4.87;;;2.47;;
22963;SDS011;11648;49.306;6.934;2023-04-24T02:35:59;4.07;;;2.60;;
22963;SDS011;11648;49.306;6.934;2023-04-24T02:38:26;4.43;;;2.30;;
22963;SDS011;11648;49.306;6.934;2023-04-24T02:40:53;4.77;;;2.90;;
22963;SDS011;11648;49.306;6.934;2023-04-24T02:43:20;4.17;;;2.80;;
22963;SDS011;11648;49.306;6.934;2023-04-24T02:45:47;4.50;;;2.73;;
22963;SDS011;11648;49.306;6.934;2023-04-24T02:48:13;5.27;;;3.00;;
22963;SDS011;11648;49.306;6.934;2023-04-24T02:50:40;5.07;;;2.80;;
22963;SDS011;11648;49.306;6.934;2023-04-24T02:53:07;5.63;;;3.20;;
22963;SDS011;11648;49.306;6.934;2023-04-24T02:55:34;4.40;;;3.27;;
22963;SDS011;11648;49.306;6.934;2023-04-24T02:58:01;5.13;;;3.50;;
22963;SDS011;11648;49.306;6.934;2023-04-24T03:00:28;4.53;;;3.63;;
22963;SDS011;11648;49.306;6.934;2023-04-24T03:02:54;4.23;;;3.30;;
22963;SDS011;11648;49.306;6.934;2023-04-24T03:05:21;5.30;;;3.50;;
22963;SDS011;11648;49.306;6.934;2023-04-24T03:07:48;5.47;;;2.90;;
22963;SDS011;11648;49.306;6.934;2023-04-24T03:10:14;5.40;;;3.80;;
22963;SDS011;11648;49.306;6.934;2023-04-24T03:12:41;4.77;;;3.50;;
22963;SDS011;11648;49.306;6.934;2023-04-24T03:15:08;4.70;;;3.20;;
22963;SDS011;11648;49.306;6.934;2023-04-24T03:17:36;5.13;;;3.33;;
22963;SDS011;11648;49.306;6.934;2023-04-24T03:20:03;5.83;;;3.70;;
22963;SDS011;11648;49.306;6.934;2023-04-24T03:22:32;4.97;;;3.53;;
22963;SDS011;11648;49.306;6.934;2023-04-24T03:25:00;5.30;;;3.50;;
22963;SDS011;11648;49.306;6.934;2023-04-24T03:27:27;6.67;;;3.90;;
22963;SDS011;11648;49.306;6.934;2023-04-24T03:29:58;5.40;;;3.90;;
22963;SDS011;11648;49.306;6.934;2023-04-24T03:32:38;7.00;;;4.07;;
22963;SDS011;11648;49.306;6.934;2023-04-24T03:35:08;4.93;;;3.80;;
22963;SDS011;11648;49.306;6.934;2023-04-24T03:37:35;4.87;;;4.03;;
22963;SDS011;11648;49.306;6.934;2023-04-24T03:40:20;4.10;;;3.60;;
22963;SDS011;11648;49.306;6.934;2023-04-24T03:42:47;6.83;;;3.97;;
22963;SDS011;11648;49.306;6.934;2023-04-24T03:45:14;5.00;;;3.87;;
22963;SDS011;11648;49.306;6.934;2023-04-24T03:47:46;6.57;;;4.10;;
22963;SDS011;11648;49.306;6.934;2023-04-24T03:50:13;6.13;;;3.83;;
22963;SDS011;11648;49.306;6.934;2023-04-24T03:52:42;5.83;;;4.00;;
22963;SDS011;11648;49.306;6.934;2023-04-24T03:55:11;6.23;;;4.10;;
22963;SDS011;11648;49.306;6.934;2023-04-24T03:57:43;5.70;;;3.67;;
22963;SDS011;11648;49.306;6.934;2023-04-24T04:00:18;6.40;;;4.00;;
22963;SDS011;11648;49.306;6.934;2023-04-24T04:02:51;6.33;;;4.13;;
22963;SDS011;11648;49.306;6.934;2023-04-24T04:05:18;6.03;;;4.03;;
22963;SDS011;11648;49.306;6.934;2023-04-24T04:07:46;7.67;;;4.33;;
22963;SDS011;11648;49.306;6.934;2023-04-24T04:10:13;6.63;;;4.10;;
22963;SDS011;11648;49.306;6.934;2023-04-24T04:12:40;7.23;;;4.20;;
22963;SDS011;11648;49.306;6.934;2023-04-24T04:15:07;7.93;;;3.90;;
22963;SDS011;11648;49.306;6.934;2023-04-24T04:17:34;5.30;;;3.57;;
22963;SDS011;11648;49.306;6.934;2023-04-24T04:20:05;6.50;;;3.60;;
22963;SDS011;11648;49.306;6.934;2023-04-24T04:22:41;5.00;;;3.70;;
22963;SDS011;11648;49.306;6.934;2023-04-24T04:25:14;5.50;;;3.50;;
22963;SDS011;11648;49.306;6.934;2023-04-24T04:27:42;5.33;;;3.63;;
22963;SDS011;11648;49.306;6.934;2023-04-24T04:30:11;5.13;;;3.97;;
22963;SDS011;11648;49.306;6.934;2023-04-24T04:32:46;5.60;;;3.70;;
22963;SDS011;11648;49.306;6.934;2023-04-24T04:35:14;7.57;;;4.20;;
22963;SDS011;11648;49.306;6.934;2023-04-24T04:37:41;5.33;;;3.60;;
22963;SDS011;11648;49.306;6.934;2023-04-24T04:40:23;4.43;;;3.07;;
22963;SDS011;11648;49.306;6.934;2023-04-24T04:42:56;6.20;;;3.63;;
22963;SDS011;11648;49.306;6.934;2023-04-24T04:45:24;8.40;;;4.10;;
22963;SDS011;11648;49.306;6.934;2023-04-24T04:48:14;5.97;;;3.90;;
22963;SDS011;11648;49.306;6.934;2023-04-24T04:50:44;6.13;;;3.70;;
22963;SDS011;11648;49.306;6.934;2023-04-24T04:53:11;5.67;;;3.80;;
22963;SDS011;11648;49.306;6.934;2023-04-24T04:55:38;4.67;;;3.33;;
22963;SDS011;11648;49.306;6.934;2023-04-24T04:58:10;6.50;;;3.50;;
22963;SDS011;11648;49.306;6.934;2023-04-24T05:00:37;7.33;;;3.63;;
22963;SDS011;11648;49.306;6.934;2023-04-24T05:03:20;5.47;;;3.53;;
22963;SDS011;11648;49.306;6.934;2023-04-24T05:05:54;5.47;;;3.43;;
22963;SDS011;11648;49.306;6.934;2023-04-24T05:08:24;6.00;;;3.43;;
22963;SDS011;11648;49.306;6.934;2023-04-24T05:10:54;4.83;;;3.80;;
22963;SDS011;11648;49.306;6.934;2023-04-24T05:13:22;4.63;;;3.27;;
22963;SDS011;11648;49.306;6.934;2023-04-24T05:16:07;4.27;;;3.00;;
22963;SDS011;11648;49.306;6.934;2023-04-24T05:18:34;7.33;;;3.50;;
22963;SDS011;11648;49.306;6.934;2023-04-24T05:21:01;5.00;;;3.30;;
22963;SDS011;11648;49.306;6.934;2023-04-24T05:23:28;5.73;;;2.90;;
22963;SDS011;11648;49.306;6.934;2023-04-24T05:25:56;5.27;;;3.60;;
22963;SDS011;11648;49.306;6.934;2023-04-24T05:28:23;5.53;;;3.53;;
22963;SDS011;11648;49.306;6.934;2023-04-24T05:31:03;4.83;;;3.43;;
22963;SDS011;11648;49.306;6.934;2023-04-24T05:33:30;4.70;;;3.47;;
22963;SDS011;11648;49.306;6.934;2023-04-24T05:35:57;5.33;;;3.20;;
22963;SDS011;11648;49.306;6.934;2023-04-24T05:38:24;4.90;;;2.93;;
22963;SDS011;11648;49.306;6.934;2023-04-24T05:40:50;3.73;;;2.90;;
22963;SDS011;11648;49.306;6.934;2023-04-24T05:43:17;6.27;;;3.60;;
22963;SDS011;11648;49.306;6.934;2023-04-24T05:45:44;5.57;;;3.23;;
22963;SDS011;11648;49.306;6.934;2023-04-24T05:48:10;5.80;;;3.40;;
22963;SDS011;11648;49.306;6.934;2023-04-24T05:50:37;4.53;;;3.37;;
22963;SDS011;11648;49.306;6.934;2023-04-24T05:53:04;5.13;;;3.30;;
22963;SDS011;11648;49.306;6.934;2023-04-24T05:55:35;7.60;;;3.27;;
22963;SDS011;11648;49.306;6.934;2023-04-24T05:58:02;6.07;;;3.43;;
22963;SDS011;11648;49.306;6.934;2023-04-24T06:00:29;4.27;;;3.30;;
22963;SDS011;11648;49.306;6.934;2023-04-24T06:03:03;8.33;;;3.47;;
22963;SDS011;11648;49.306;6.934;2023-04-24T06:05:31;4.20;;;3.20;;
22963;SDS011;11648;49.306;6.934;2023-04-24T06:07:58;5.00;;;3.37;;
22963;SDS011;11648;49.306;6.934;2023-04-24T06:10:30;5.93;;;3.40;;
22963;SDS011;11648;49.306;6.934;2023-04-24T06:12:57;5.20;;;3.43;;
22963;SDS011;11648;49.306;6.934;2023-04-24T06:15:28;4.77;;;3.40;;
22963;SDS011;11648;49.306;6.934;2023-04-24T06:18:04;4.13;;;2.90;;
22963;SDS011;11648;49.306;6.934;2023-04-24T06:20:32;5.00;;;2.67;;
22963;SDS011;11648;49.306;6.934;2023-04-24T06:22:58;3.30;;;2.80;;
22963;SDS011;11648;49.306;6.934;2023-04-24T06:25:25;5.07;;;3.27;;
22963;SDS011;11648;49.306;6.934;2023-04-24T06:27:53;3.70;;;3.00;;
22963;SDS011;11648;49.306;6.934;2023-04-24T06:30:20;4.73;;;2.50;;
22963;SDS011;11648;49.306;6.934;2023-04-24T06:32:47;3.93;;;3.27;;
22963;SDS011;11648;49.306;6.934;2023-04-24T06:35:14;6.87;;;2.90;;
22963;SDS011;11648;49.306;6.934;2023-04-24T06:37:42;3.90;;;2.87;;
22963;SDS011;11648;49.306;6.934;2023-04-24T06:40:09;5.00;;;2.77;;
22963;SDS011;11648;49.306;6.934;2023-04-24T06:42:36;5.70;;;3.17;;
22963;SDS011;11648;49.306;6.934;2023-04-24T06:45:04;4.30;;;2.83;;
22963;SDS011;11648;49.306;6.934;2023-04-24T06:47:31;3.57;;;2.60;;
22963;SDS011;11648;49.306;6.934;2023-04-24T06:49:58;5.03;;;2.90;;
22963;SDS011;11648;49.306;6.934;2023-04-24T06:52:25;5.03;;;2.83;;
22963;SDS011;11648;49.306;6.934;2023-04-24T06:54:52;4.90;;;2.10;;
22963;SDS011;11648;49.306;6.934;2023-04-24T06:57:19;6.20;;;2.40;;
22963;SDS011;11648;49.306;6.934;2023-04-24T06:59:46;3.67;;;2.33;;
22963;SDS011;11648;49.306;6.934;2023-04-24T07:02:13;3.90;;;2.13;;
22963;SDS011;11648;49.306;6.934;2023-04-24T07:04:40;4.90;;;2.40;;
22963;SDS011;11648;49.306;6.934;2023-04-24T07:07:08;4.33;;;2.40;;
22963;SDS011;11648;49.306;6.934;2023-04-24T07:09:35;5.00;;;2.67;;
22963;SDS011;11648;49.306;6.934;2023-04-24T07:12:05;3.47;;;2.60;;
22963;SDS011;11648;49.306;6.934;2023-04-24T07:14:32;5.80;;;2.87;;
22963;SDS011;11648;49.306;6.934;2023-04-24T07:16:59;6.97;;;2.50;;
22963;SDS011;11648;49.306;6.934;2023-04-24T07:19:25;4.23;;;2.60;;
22963;SDS011;11648;49.306;6.934;2023-04-24T07:21:52;5.00;;;2.80;;
22963;SDS011;11648;49.306;6.934;2023-04-24T07:24:21;4.20;;;2.90;;
22963;SDS011;11648;49.306;6.934;2023-04-24T07:26:50;6.20;;;3.07;;
22963;SDS011;11648;49.306;6.934;2023-04-24T07:29:18;8.17;;;3.13;;
22963;SDS011;11648;49.306;6.934;2023-04-24T07:31:45;7.10;;;3.43;;
22963;SDS011;11648;49.306;6.934;2023-04-24T07:34:12;7.87;;;3.33;;
22963;SDS011;11648;49.306;6.934;2023-04-24T07:36:40;6.33;;;3.37;;
22963;SDS011;11648;49.306;6.934;2023-04-24T07:39:07;7.03;;;3.43;;
22963;SDS011;11648;49.306;6.934;2023-04-24T07:41:34;6.40;;;3.50;;
22963;SDS011;11648;49.306;6.934;2023-04-24T07:44:01;6.53;;;3.80;;
22963;SDS011;11648;49.306;6.934;2023-04-24T07:46:29;6.70;;;3.87;;
22963;SDS011;11648;49.306;6.934;2023-04-24T07:48:57;6.07;;;3.63;;
22963;SDS011;11648;49.306;6.934;2023-04-24T07:51:37;5.63;;;3.43;;
22963;SDS011;11648;49.306;6.934;2023-04-24T07:54:04;8.23;;;3.87;;
22963;SDS011;11648;49.306;6.934;2023-04-24T07:56:34;7.67;;;4.50;;
22963;SDS011;11648;49.306;6.934;2023-04-24T07:59:05;5.90;;;3.73;;
22963;SDS011;11648;49.306;6.934;2023-04-24T08:01:32;6.43;;;4.03;;
22963;SDS011;11648;49.306;6.934;2023-04-24T08:03:58;7.67;;;4.30;;
22963;SDS011;11648;49.306;6.934;2023-04-24T08:06:25;7.90;;;5.27;;
22963;SDS011;11648;49.306;6.934;2023-04-24T08:08:56;8.07;;;5.10;;
22963;SDS011;11648;49.306;6.934;2023-04-24T08:11:24;9.30;;;4.60;;
22963;SDS011;11648;49.306;6.934;2023-04-24T08:13:51;8.37;;;5.10;;
22963;SDS011;11648;49.306;6.934;2023-04-24T08:16:17;7.40;;;5.03;;
22963;SDS011;11648;49.306;6.934;2023-04-24T08:18:44;7.77;;;4.87;;
22963;SDS011;11648;49.306;6.934;2023-04-24T08:21:11;7.00;;;4.80;;
22963;SDS011;11648;49.306;6.934;2023-04-24T08:23:43;10.10;;;5.03;;
22963;SDS011;11648;49.306;6.934;2023-04-24T08:26:10;6.63;;;5.20;;
22963;SDS011;11648;49.306;6.934;2023-04-24T08:28:37;6.63;;;4.93;;
22963;SDS011;11648;49.306;6.934;2023-04-24T08:31:04;6.47;;;4.77;;
22963;SDS011;11648;49.306;6.934;2023-04-24T08:33:31;6.30;;;5.03;;
22963;SDS011;11648;49.306;6.934;2023-04-24T08:36:04;7.63;;;5.30;;
22963;SDS011;11648;49.306;6.934;2023-04-24T08:38:32;10.13;;;5.30;;
22963;SDS011;11648;49.306;6.934;2023-04-24T08:40:59;8.07;;;5.50;;
22963;SDS011;11648;49.306;6.934;2023-04-24T08:43:27;8.67;;;5.57;;
22963;SDS011;11648;49.306;6.934;2023-04-24T08:45:55;8.43;;;5.80;;
22963;SDS011;11648;49.306;6.934;2023-04-24T08:48:23;10.57;;;5.67;;
22963;SDS011;11648;49.306;6.934;2023-04-24T08:50:57;8.30;;;5.83;;
22963;SDS011;11648;49.306;6.934;2023-04-24T08:53:25;8.40;;;5.80;;
22963;SDS011;11648;49.306;6.934;2023-04-24T08:55:52;9.00;;;6.00;;
22963;SDS011;11648;49.306;6.934;2023-04-24T08:58:22;9.90;;;5.80;;
22963;SDS011;11648;49.306;6.934;2023-04-24T09:00:54;9.67;;;6.10;;
22963;SDS011;11648;49.306;6.934;2023-04-24T09:03:22;8.20;;;5.83;;
22963;SDS011;11648;49.306;6.934;2023-04-24T09:05:49;8.43;;;6.00;;
22963;SDS011;11648;49.306;6.934;2023-04-24T09:08:17;8.43;;;5.57;;
22963;SDS011;11648;49.306;6.934;2023-04-24T09:10:45;9.43;;;6.27;;
22963;SDS011;11648;49.306;6.934;2023-04-24T09:13:15;7.73;;;5.43;;
22963;SDS011;11648;49.306;6.934;2023-04-24T09:15:43;10.70;;;5.70;;
22963;SDS011;11648;49.306;6.934;2023-04-24T09:18:09;7.00;;;5.27;;
22963;SDS011;11648;49.306;6.934;2023-04-24T09:20:56;7.47;;;5.57;;
22963;SDS011;11648;49.306;6.934;2023-04-24T09:23:25;8.83;;;5.57;;
22963;SDS011;11648;49.306;6.934;2023-04-24T09:25:56;8.90;;;5.90;;
22963;SDS011;11648;49.306;6.934;2023-04-24T09:28:37;8.87;;;6.00;;
22963;SDS011;11648;49.306;6.934;2023-04-24T09:33:36;10.40;;;5.33;;
22963;SDS011;11648;49.306;6.934;2023-04-24T09:36:03;9.27;;;5.57;;
22963;SDS011;11648;49.306;6.934;2023-04-24T09:38:34;9.43;;;5.30;;
22963;SDS011;11648;49.306;6.934;2023-04-24T09:41:06;11.20;;;5.87;;
22963;SDS011;11648;49.306;6.934;2023-04-24T09:43:34;8.63;;;5.63;;
22963;SDS011;11648;49.306;6.934;2023-04-24T09:46:07;8.00;;;4.90;;
22963;SDS011;11648;49.306;6.934;2023-04-24T09:48:37;8.27;;;5.20;;
22963;SDS011;11648;49.306;6.934;2023-04-24T09:51:05;8.17;;;5.50;;
22963;SDS011;11648;49.306;6.934;2023-04-24T09:53:37;7.43;;;5.20;;
22963;SDS011;11648;49.306;6.934;2023-04-24T09:56:10;7.83;;;5.50;;
22963;SDS011;11648;49.306;6.934;2023-04-24T09:58:39;9.07;;;5.60;;
22963;SDS011;11648;49.306;6.934;2023-04-24T10:01:06;12.43;;;6.97;;
22963;SDS011;11648;49.306;6.934;2023-04-24T10:03:33;8.40;;;5.20;;
22963;SDS011;11648;49.306;6.934;2023-04-24T10:06:02;8.90;;;4.87;;
22963;SDS011;11648;49.306;6.934;2023-04-24T10:08:35;7.07;;;5.00;;
22963;SDS011;11648;49.306;6.934;2023-04-24T10:11:03;6.93;;;4.90;;
22963;SDS011;11648;49.306;6.934;2023-04-24T10:13:29;8.47;;;5.00;;
22963;SDS011;11648;49.306;6.934;2023-04-24T10:15:56;7.60;;;4.50;;
22963;SDS011;11648;49.306;6.934;2023-04-24T10:18:26;9.33;;;4.70;;
22963;SDS011;11648;49.306;6.934;2023-04-24T10:20:53;7.00;;;4.67;;
22963;SDS011;11648;49.306;6.934;2023-04-24T10:23:21;6.13;;;4.43;;
22963;SDS011;11648;49.306;6.934;2023-04-24T10:25:49;6.17;;;4.37;;
22963;SDS011;11648;49.306;6.934;2023-04-24T10:28:17;6.23;;;4.20;;
22963;SDS011;11648;49.306;6.934;2023-04-24T10:30:45;6.93;;;4.83;;
22963;SDS011;11648;49.306;6.934;2023-04-24T10:33:12;9.07;;;4.27;;
22963;SDS011;11648;49.306;6.934;2023-04-24T10:35:44;7.47;;;4.40;;
22963;SDS011;11648;49.306;6.934;2023-04-24T10:38:16;9.30;;;4.67;;
22963;SDS011;11648;49.306;6.934;2023-04-24T10:40:50;8.67;;;4.50;;
22963;SDS011;11648;49.306;6.934;2023-04-24T10:43:17;9.10;;;4.70;;
22963;SDS011;11648;49.306;6.934;2023-04-24T10:46:01;8.03;;;4.37;;
22963;SDS011;11648;49.306;6.934;2023-04-24T10:48:32;8.67;;;4.43;;
22963;SDS011;11648;49.306;6.934;2023-04-24T10:51:00;6.93;;;4.60;;
22963;SDS011;11648;49.306;6.934;2023-04-24T10:53:28;8.37;;;4.77;;
22963;SDS011;11648;49.306;6.934;2023-04-24T10:55:57;6.93;;;5.03;;
22963;SDS011;11648;49.306;6.934;2023-04-24T11:01:32;6.53;;;4.27;;
22963;SDS011;11648;49.306;6.934;2023-04-24T11:04:00;7.50;;;4.80;;
22963;SDS011;11648;49.306;6.934;2023-04-24T11:11:31;7.60;;;5.07;;
22963;SDS011;11648;49.306;6.934;2023-04-24T11:14:03;8.47;;;5.47;;
22963;SDS011;11648;49.306;6.934;2023-04-24T11:19:24;7.33;;;4.33;;
22963;SDS011;11648;49.306;6.934;2023-04-24T11:21:57;5.60;;;4.50;;
22963;SDS011;11648;49.306;6.934;2023-04-24T11:27:19;7.90;;;4.93;;
22963;SDS011;11648;49.306;6.934;2023-04-24T11:29:48;8.93;;;4.70;;
22963;SDS011;11648;49.306;6.934;2023-04-24T11:34:52;6.03;;;4.37;;
22963;SDS011;11648;49.306;6.934;2023-04-24T11:37:19;8.13;;;4.60;;
22963;SDS011;11648;49.306;6.934;2023-04-24T11:39:46;7.03;;;4.87;;
22963;SDS011;11648;49.306;6.934;2023-04-24T11:42:16;7.67;;;4.80;;
22963;SDS011;11648;49.306;6.934;2023-04-24T11:44:43;7.50;;;5.37;;
22963;SDS011;11648;49.306;6.934;2023-04-24T11:47:10;7.30;;;5.07;;
22963;SDS011;11648;49.306;6.934;2023-04-24T11:49:36;10.07;;;5.13;;
22963;SDS011;11648;49.306;6.934;2023-04-24T11:52:04;7.27;;;4.63;;
22963;SDS011;11648;49.306;6.934;2023-04-24T11:54:31;6.43;;;4.30;;
22963;SDS011;11648;49.306;6.934;2023-04-24T11:56:58;6.93;;;4.60;;
22963;SDS011;11648;49.306;6.934;2023-04-24T11:59:25;6.77;;;4.30;;
22963;SDS011;11648;49.306;6.934;2023-04-24T12:01:52;5.97;;;3.90;;
22963;SDS011;11648;49.306;6.934;2023-04-24T12:04:18;5.50;;;3.90;;
22963;SDS011;11648;49.306;6.934;2023-04-24T12:09:28;6.23;;;4.20;;
22963;SDS011;11648;49.306;6.934;2023-04-24T12:12:06;7.23;;;3.97;;
22963;SDS011;11648;49.306;6.934;2023-04-24T12:14:32;12.17;;;4.30;;
22963;SDS011;11648;49.306;6.934;2023-04-24T12:16:59;6.57;;;4.40;;
22963;SDS011;11648;49.306;6.934;2023-04-24T12:19:29;5.90;;;4.00;;
22963;SDS011;11648;49.306;6.934;2023-04-24T12:21:59;5.73;;;4.30;;
22963;SDS011;11648;49.306;6.934;2023-04-24T12:24:27;8.33;;;4.30;;
22963;SDS011;11648;49.306;6.934;2023-04-24T12:26:54;6.27;;;4.37;;
22963;SDS011;11648;49.306;6.934;2023-04-24T12:29:21;8.93;;;5.07;;
22963;SDS011;11648;49.306;6.934;2023-04-24T12:31:48;8.07;;;4.90;;
22963;SDS011;11648;49.306;6.934;2023-04-24T12:34:22;6.87;;;5.07;;
22963;SDS011;11648;49.306;6.934;2023-04-24T12:36:51;7.97;;;4.90;;
22963;SDS011;11648;49.306;6.934;2023-04-24T12:39:18;7.13;;;5.10;;
22963;SDS011;11648;49.306;6.934;2023-04-24T12:41:56;8.43;;;5.30;;
22963;SDS011;11648;49.306;6.934;2023-04-24T12:44:35;6.83;;;5.27;;
22963;SDS011;11648;49.306;6.934;2023-04-24T12:47:03;9.30;;;5.57;;
22963;SDS011;11648;49.306;6.934;2023-04-24T12:49:30;9.23;;;5.70;;
22963;SDS011;11648;49.306;6.934;2023-04-24T12:51:57;9.60;;;4.97;;
22963;SDS011;11648;49.306;6.934;2023-04-24T12:54:24;8.30;;;5.00;;
22963;SDS011;11648;49.306;6.934;2023-04-24T12:56:51;7.40;;;4.67;;
22963;SDS011;11648;49.306;6.934;2023-04-24T12:59:17;6.57;;;5.00;;
22963;SDS011;11648;49.306;6.934;2023-04-24T13:01:44;7.50;;;4.77;;
22963;SDS011;11648;49.306;6.934;2023-04-24T13:04:11;8.30;;;5.80;;
22963;SDS011;11648;49.306;6.934;2023-04-24T13:06:38;7.30;;;5.03;;
22963;SDS011;11648;49.306;6.934;2023-04-24T13:09:04;6.00;;;4.87;;
22963;SDS011;11648;49.306;6.934;2023-04-24T13:11:31;6.87;;;5.17;;
22963;SDS011;11648;49.306;6.934;2023-04-24T13:13:58;7.83;;;5.03;;
22963;SDS011;11648;49.306;6.934;2023-04-24T13:16:24;7.40;;;4.13;;
22963;SDS011;11648;49.306;6.934;2023-04-24T13:18:51;5.83;;;4.33;;
22963;SDS011;11648;49.306;6.934;2023-04-24T13:21:18;6.57;;;4.50;;
22963;SDS011;11648;49.306;6.934;2023-04-24T13:23:45;7.03;;;4.40;;
22963;SDS011;11648;49.306;6.934;2023-04-24T13:26:11;5.93;;;4.20;;
22963;SDS011;11648;49.306;6.934;2023-04-24T13:28:38;5.23;;;3.73;;
22963;SDS011;11648;49.306;6.934;2023-04-24T13:31:05;4.20;;;2.93;;
22963;SDS011;11648;49.306;6.934;2023-04-24T13:33:32;4.97;;;3.07;;
22963;SDS011;11648;49.306;6.934;2023-04-24T13:35:59;4.33;;;2.80;;
22963;SDS011;11648;49.306;6.934;2023-04-24T13:38:26;3.70;;;2.53;;
22963;SDS011;11648;49.306;6.934;2023-04-24T13:40:53;4.30;;;2.80;;
22963;SDS011;11648;49.306;6.934;2023-04-24T13:43:19;4.50;;;3.27;;
22963;SDS011;11648;49.306;6.934;2023-04-24T13:45:46;4.13;;;3.00;;
22963;SDS011;11648;49.306;6.934;2023-04-24T13:48:13;4.53;;;3.20;;
22963;SDS011;11648;49.306;6.934;2023-04-24T13:50:42;4.67;;;4.17;;
22963;SDS011;11648;49.306;6.934;2023-04-24T13:53:09;7.67;;;4.10;;
22963;SDS011;11648;49.306;6.934;2023-04-24T13:55:36;5.67;;;4.10;;
22963;SDS011;11648;49.306;6.934;2023-04-24T13:58:03;5.07;;;4.10;;
22963;SDS011;11648;49.306;6.934;2023-04-24T14:00:30;6.97;;;4.43;;
22963;SDS011;11648;49.306;6.934;2023-04-24T14:02:57;6.00;;;4.23;;
22963;SDS011;11648;49.306;6.934;2023-04-24T14:05:24;6.57;;;4.67;;
22963;SDS011;11648;49.306;6.934;2023-04-24T14:07:51;6.83;;;4.83;;
22963;SDS011;11648;49.306;6.934;2023-04-24T14:10:18;5.67;;;4.70;;
22963;SDS011;11648;49.306;6.934;2023-04-24T14:12:44;7.60;;;4.80;;
22963;SDS011;11648;49.306;6.934;2023-04-24T14:15:11;6.37;;;4.57;;
22963;SDS011;11648;49.306;6.934;2023-04-24T14:17:39;5.83;;;4.50;;
22963;SDS011;11648;49.306;6.934;2023-04-24T14:20:06;6.00;;;4.40;;
22963;SDS011;11648;49.306;6.934;2023-04-24T14:22:33;6.97;;;4.23;;
22963;SDS011;11648;49.306;6.934;2023-04-24T14:25:00;5.73;;;3.90;;
22963;SDS011;11648;49.306;6.934;2023-04-24T14:27:27;4.70;;;3.50;;
22963;SDS011;11648;49.306;6.934;2023-04-24T14:29:54;4.27;;;3.23;;
22963;SDS011;11648;49.306;6.934;2023-04-24T14:32:21;4.77;;;3.20;;
22963;SDS011;11648;49.306;6.934;2023-04-24T14:34:47;5.40;;;4.00;;
22963;SDS011;11648;49.306;6.934;2023-04-24T14:37:14;4.63;;;3.63;;
22963;SDS011;11648;49.306;6.934;2023-04-24T14:39:41;5.03;;;3.50;;
22963;SDS011;11648;49.306;6.934;2023-04-24T14:42:13;4.50;;;3.70;;
22963;SDS011;11648;49.306;6.934;2023-04-24T14:44:40;6.67;;;3.83;;
22963;SDS011;11648;49.306;6.934;2023-04-24T14:47:06;5.10;;;4.00;;
22963;SDS011;11648;49.306;6.934;2023-04-24T14:49:33;4.53;;;2.73;;
22963;SDS011;11648;49.306;6.934;2023-04-24T14:52:00;3.87;;;2.40;;
22963;SDS011;11648;49.306;6.934;2023-04-24T14:54:29;4.23;;;2.17;;
22963;SDS011;11648;49.306;6.934;2023-04-24T14:56:56;3.37;;;2.07;;
22963;SDS011;11648;49.306;6.934;2023-04-24T14:59:23;3.17;;;1.90;;
22963;SDS011;11648;49.306;6.934;2023-04-24T15:01:50;3.47;;;1.70;;
22963;SDS011;11648;49.306;6.934;2023-04-24T15:04:39;3.30;;;1.60;;
22963;SDS011;11648;49.306;6.934;2023-04-24T15:07:06;2.30;;;1.80;;
22963;SDS011;11648;49.306;6.934;2023-04-24T15:09:32;3.23;;;2.13;;
22963;SDS011;11648;49.306;6.934;2023-04-24T15:11:59;3.30;;;1.93;;
22963;SDS011;11648;49.306;6.934;2023-04-24T15:14:26;2.70;;;2.03;;
22963;SDS011;11648;49.306;6.934;2023-04-24T15:16:52;3.23;;;1.73;;